Time;durP1;ratioP1;P1;durP2;ratioP2;P2;SDS_P1;SDS_P2;PMS_P1;PMS_P2;Temp;Humidity;BMP_temperature;BMP_pressure;BME280_temperature;BME280_humidity;BME280_pressure;Samples;Min_cycle;Max_cycle;Signal;HPM_P1;HPM_P2
2022/06/08 00:01:41;;;;;;;0.30;0.30;;;10.60;99.90;;;;;;5114348;28;20192;-67
2022/06/08 00:04:11;;;;;;;0.30;0.30;;;10.60;99.90;;;;;;5113922;28;20187;-68
2022/06/08 00:06:36;;;;;;;0.30;0.30;;;10.60;99.90;;;;;;5114253;28;20521;-69
2022/06/08 00:09:02;;;;;;;0.30;0.30;;;10.60;99.90;;;;;;5114172;28;20206;-68
2022/06/08 00:11:28;;;;;;;0.30;0.30;;;10.70;99.90;;;;;;5113940;28;20176;-68
2022/06/08 00:13:54;;;;;;;0.30;0.30;;;10.50;99.90;;;;;;5113832;28;20398;-69
2022/06/08 00:16:19;;;;;;;0.30;0.30;;;10.50;99.90;;;;;;5114040;28;20398;-68
2022/06/08 00:18:46;;;;;;;0.30;0.30;;;10.50;99.90;;;;;;5114211;28;20161;-68
2022/06/08 00:21:14;;;;;;;0.30;0.30;;;10.40;99.90;;;;;;5114169;28;20176;-69
2022/06/08 00:23:40;;;;;;;0.30;0.30;;;10.40;99.90;;;;;;5113625;28;20298;-69
2022/06/08 00:26:06;;;;;;;0.30;0.30;;;10.50;99.90;;;;;;5114024;28;20222;-69
2022/06/08 00:28:32;;;;;;;0.30;0.30;;;10.50;99.90;;;;;;5113870;28;20224;-68
2022/06/08 00:30:59;;;;;;;0.30;0.30;;;10.50;99.90;;;;;;5113965;28;20168;-69
2022/06/08 00:33:25;;;;;;;0.30;0.30;;;10.50;99.90;;;;;;5113687;28;20727;-68
2022/06/08 00:35:51;;;;;;;0.30;0.30;;;10.40;99.90;;;;;;5114037;28;20247;-69
2022/06/08 00:38:16;;;;;;;0.30;0.30;;;10.40;99.90;;;;;;5113929;28;20262;-69
2022/06/08 00:41:07;;;;;;;0.30;0.30;;;10.40;99.90;;;;;;5113698;28;20418;-69
2022/06/08 00:43:33;;;;;;;0.30;0.30;;;10.40;99.90;;;;;;5113792;28;20532;-68
2022/06/08 00:45:59;;;;;;;0.30;0.30;;;10.40;99.90;;;;;;5113858;28;20535;-68
2022/06/08 00:48:30;;;;;;;0.30;0.30;;;10.40;99.90;;;;;;5113829;28;20188;-67
2022/06/08 00:50:57;;;;;;;0.30;0.30;;;10.30;99.90;;;;;;5113931;28;20252;-70
2022/06/08 00:53:31;;;;;;;0.30;0.30;;;10.30;99.90;;;;;;5113697;28;20195;-68
2022/06/08 00:56:00;;;;;;;0.30;0.30;;;10.30;99.90;;;;;;5113930;28;20171;-70
2022/06/08 00:58:29;;;;;;;0.30;0.30;;;10.20;99.90;;;;;;5113739;28;20183;-68
2022/06/08 01:00:55;;;;;;;0.30;0.30;;;10.20;99.90;;;;;;5113767;28;20531;-68
2022/06/08 01:03:21;;;;;;;0.30;0.30;;;10.20;99.90;;;;;;5113308;28;20267;-69
2022/06/08 01:06:03;;;;;;;0.30;0.30;;;10.10;99.90;;;;;;5113758;28;20176;-68
2022/06/08 01:08:35;;;;;;;0.30;0.30;;;10.10;99.90;;;;;;5113684;28;20449;-68
2022/06/08 01:11:09;;;;;;;0.30;0.30;;;10.10;99.90;;;;;;5113609;28;20247;-68
2022/06/08 01:13:36;;;;;;;0.30;0.30;;;10.20;99.90;;;;;;5113335;28;20241;-69
2022/06/08 01:16:05;;;;;;;0.30;0.30;;;10.20;99.90;;;;;;5113419;28;20209;-68
2022/06/08 01:18:32;;;;;;;0.30;0.30;;;10.10;99.90;;;;;;5113451;28;20172;-69
2022/06/08 01:21:22;;;;;;;0.30;0.30;;;10.10;99.90;;;;;;5113432;28;20165;-69
2022/06/08 01:23:59;;;;;;;0.30;0.30;;;10.10;99.90;;;;;;5113314;28;20184;-69
2022/06/08 01:26:53;;;;;;;0.30;0.30;;;10.00;99.90;;;;;;5115805;28;20579;-68
2022/06/08 01:29:29;;;;;;;0.30;0.30;;;10.00;99.90;;;;;;5117640;28;20194;-69
2022/06/08 01:32:25;;;;;;;0.30;0.30;;;9.90;99.90;;;;;;5117219;28;20195;-70
2022/06/08 01:35:28;;;;;;;0.30;0.30;;;9.90;99.90;;;;;;5117115;28;20164;-68
2022/06/08 01:38:05;;;;;;;0.30;0.30;;;9.90;99.90;;;;;;5117103;28;20651;-68
2022/06/08 01:40:31;;;;;;;0.30;0.30;;;9.90;99.90;;;;;;5117001;27;20254;-68
2022/06/08 01:43:35;;;;;;;0.30;0.30;;;9.90;99.90;;;;;;5116474;28;20272;-69
2022/06/08 01:46:23;;;;;;;0.30;0.30;;;9.90;99.90;;;;;;5074096;28;20184;-68
2022/06/08 01:49:04;;;;;;;0.30;0.30;;;10.00;99.90;;;;;;5074136;28;20205;-69
2022/06/08 01:52:08;;;;;;;0.30;0.30;;;10.00;99.90;;;;;;5104727;28;20546;-68
2022/06/08 01:54:58;;;;;;;0.30;0.30;;;10.10;99.90;;;;;;5100284;28;20541;-68
2022/06/08 01:57:57;;;;;;;0.30;0.30;;;10.10;99.90;;;;;;5116724;28;20165;-69
2022/06/08 02:00:32;;;;;;;0.30;0.30;;;10.10;99.90;;;;;;5116661;28;20534;-69
2022/06/08 02:03:00;;;;;;;0.30;0.30;;;10.10;99.90;;;;;;5116392;28;20271;-69
2022/06/08 02:05:41;;;;;;;0.30;0.30;;;10.10;99.90;;;;;;5115203;28;20173;-69
2022/06/08 02:08:34;;;;;;;0.30;0.30;;;10.10;99.90;;;;;;5116406;27;20285;-69
2022/06/08 02:11:22;;;;;;;0.30;0.30;;;10.00;99.90;;;;;;5116301;28;20168;-70
2022/06/08 02:13:55;;;;;;;0.30;0.30;;;10.10;99.90;;;;;;5116344;28;20214;-68
2022/06/08 02:16:29;;;;;;;0.30;0.30;;;10.00;99.90;;;;;;5116357;27;20160;-69
2022/06/08 02:19:09;;;;;;;0.30;0.30;;;10.00;99.90;;;;;;5116144;28;20207;-69
2022/06/08 02:21:42;;;;;;;0.30;0.30;;;9.90;99.90;;;;;;5116163;28;20574;-68
2022/06/08 02:24:25;;;;;;;0.30;0.30;;;10.00;99.90;;;;;;5115938;28;20218;-69
2022/06/08 02:27:11;;;;;;;0.30;0.30;;;10.00;99.90;;;;;;5116104;28;20172;-67
2022/06/08 02:29:47;;;;;;;0.30;0.30;;;9.90;99.90;;;;;;5116142;28;20265;-70
2022/06/08 02:35:24;;;;;;;0.30;0.30;;;9.90;99.90;;;;;;5115966;28;20210;-69
2022/06/08 02:37:55;;;;;;;0.30;0.30;;;9.80;99.90;;;;;;5114855;28;20168;-69
2022/06/08 02:40:26;;;;;;;0.30;0.30;;;9.80;99.90;;;;;;5115783;28;20638;-68
2022/06/08 02:42:56;;;;;;;0.30;0.30;;;9.80;99.90;;;;;;5115660;28;20689;-70
2022/06/08 02:45:27;;;;;;;0.30;0.30;;;9.80;99.90;;;;;;5115801;28;20228;-68
2022/06/08 02:48:09;;;;;;;0.30;0.30;;;9.80;99.90;;;;;;5115471;28;20206;-69
2022/06/08 02:50:36;;;;;;;0.30;0.30;;;9.70;99.90;;;;;;5115714;28;20175;-68
2022/06/08 02:53:16;;;;;;;0.30;0.30;;;9.80;99.90;;;;;;5115175;28;20260;-68
2022/06/08 02:55:48;;;;;;;0.30;0.30;;;9.80;99.90;;;;;;5115341;28;20168;-68
2022/06/08 02:58:40;;;;;;;0.30;0.30;;;9.80;99.90;;;;;;5115544;28;20241;-69
2022/06/08 03:01:15;;;;;;;0.30;0.30;;;9.90;99.90;;;;;;5114930;28;20187;-69
2022/06/08 03:03:54;;;;;;;0.30;0.30;;;9.90;99.90;;;;;;5115099;28;20195;-68
2022/06/08 03:06:24;;;;;;;0.30;0.30;;;9.90;99.90;;;;;;5115287;28;20217;-69
2022/06/08 03:08:57;;;;;;;0.30;0.30;;;9.90;99.90;;;;;;5115469;28;20202;-69
2022/06/08 03:11:25;;;;;;;0.30;0.30;;;9.70;99.90;;;;;;5115244;28;20517;-69
2022/06/08 03:14:04;;;;;;;0.30;0.30;;;9.80;99.90;;;;;;5114931;28;20160;-69
2022/06/08 03:16:39;;;;;;;0.30;0.30;;;9.80;99.90;;;;;;5115167;28;20513;-69
2022/06/08 03:19:06;;;;;;;0.30;0.30;;;9.80;99.90;;;;;;5113868;28;20207;-69
2022/06/08 03:21:31;;;;;;;0.30;0.30;;;10.00;99.90;;;;;;5114822;28;20577;-68
2022/06/08 03:23:59;;;;;;;0.30;0.30;;;9.70;99.90;;;;;;5114617;28;20212;-68
2022/06/08 03:26:34;;;;;;;0.30;0.30;;;9.70;99.90;;;;;;5114845;28;20522;-69
2022/06/08 03:29:00;;;;;;;0.30;0.30;;;9.80;99.90;;;;;;5114784;28;20209;-70
2022/06/08 03:31:25;;;;;;;0.30;0.30;;;9.80;99.90;;;;;;5114707;28;20524;-69
2022/06/08 03:33:51;;;;;;;0.30;0.30;;;9.90;99.90;;;;;;5114387;28;20191;-69
2022/06/08 03:36:16;;;;;;;0.30;0.30;;;9.80;99.90;;;;;;5114631;28;20533;-67
2022/06/08 03:38:42;;;;;;;0.30;0.30;;;9.80;99.90;;;;;;5114639;28;20246;-68
2022/06/08 03:41:08;;;;;;;0.30;0.30;;;9.80;99.90;;;;;;5114719;28;20624;-69
2022/06/08 03:43:33;;;;;;;0.30;0.30;;;9.80;99.90;;;;;;5114339;28;20687;-69
2022/06/08 03:46:02;;;;;;;0.30;0.30;;;9.80;99.90;;;;;;5114561;28;20649;-67
2022/06/08 03:48:28;;;;;;;0.30;0.30;;;9.80;99.90;;;;;;5114013;28;20196;-67
2022/06/08 03:50:57;;;;;;;0.30;0.30;;;9.80;99.90;;;;;;5114557;28;20526;-68
2022/06/08 03:53:27;;;;;;;0.30;0.30;;;9.80;99.90;;;;;;5114128;28;20183;-69
2022/06/08 03:55:56;;;;;;;0.30;0.30;;;9.90;99.90;;;;;;5114509;28;20172;-68
2022/06/08 03:58:22;;;;;;;0.30;0.30;;;9.90;99.90;;;;;;5114323;28;20196;-68
2022/06/08 04:00:50;;;;;;;0.30;0.30;;;9.90;99.90;;;;;;5114180;28;20171;-68
2022/06/08 04:03:16;;;;;;;0.40;0.40;;;9.90;99.90;;;;;;5114005;28;20224;-69
2022/06/08 04:05:42;;;;;;;0.30;0.30;;;9.90;99.90;;;;;;5114363;28;20175;-69
2022/06/08 04:08:07;;;;;;;0.30;0.30;;;9.90;99.90;;;;;;5114235;28;20526;-69
2022/06/08 04:10:33;;;;;;;0.30;0.30;;;9.80;99.90;;;;;;5114061;28;20246;-68
2022/06/08 04:12:59;;;;;;;0.30;0.30;;;9.80;99.90;;;;;;5113815;28;20188;-68
2022/06/08 04:15:43;;;;;;;0.30;0.30;;;9.80;99.90;;;;;;5114440;28;20179;-68
2022/06/08 04:18:18;;;;;;;0.30;0.30;;;9.70;99.90;;;;;;5113994;28;20562;-67
2022/06/08 04:20:48;;;;;;;0.57;0.57;;;9.80;99.90;;;;;;5114134;28;20171;-68
2022/06/08 04:23:14;;;;;;;0.30;0.30;;;10.00;99.90;;;;;;5113574;28;20196;-69
2022/06/08 04:25:42;;;;;;;0.40;0.40;;;10.10;99.90;;;;;;5114543;28;20187;-69
2022/06/08 04:28:09;;;;;;;0.30;0.30;;;10.60;99.90;;;;;;5113930;28;20684;-68
2022/06/08 04:30:35;;;;;;;0.30;0.30;;;11.20;99.90;;;;;;5113948;28;20184;-67
2022/06/08 04:33:01;;;;;;;0.30;0.30;;;11.70;99.90;;;;;;5113683;28;20433;-68
2022/06/08 04:35:27;;;;;;;0.30;0.30;;;11.80;99.90;;;;;;5114029;28;20406;-69
2022/06/08 04:37:53;;;;;;;0.30;0.30;;;11.90;99.90;;;;;;5113900;28;20457;-68
2022/06/08 04:40:21;;;;;;;0.30;0.30;;;12.10;99.90;;;;;;5114133;28;20406;-70
2022/06/08 04:42:47;;;;;;;0.30;0.30;;;12.30;99.90;;;;;;5113584;28;20815;-69
2022/06/08 04:45:13;;;;;;;0.30;0.30;;;12.70;99.90;;;;;;5113769;28;20406;-70
2022/06/08 04:47:39;;;;;;;0.30;0.30;;;13.30;99.90;;;;;;5113736;28;20776;-68
2022/06/08 04:50:07;;;;;;;0.40;0.40;;;13.90;99.90;;;;;;5112543;28;20510;-68
2022/06/08 04:52:33;;;;;;;0.30;0.30;;;14.50;99.90;;;;;;5113521;28;20430;-69
2022/06/08 04:54:59;;;;;;;0.30;0.30;;;14.90;99.90;;;;;;5113647;28;20410;-69
2022/06/08 04:57:25;;;;;;;0.40;0.40;;;15.20;98.60;;;;;;5113970;28;20924;-70
2022/06/08 04:59:52;;;;;;;0.30;0.30;;;15.30;97.90;;;;;;5113703;28;20888;-69
2022/06/08 05:05:04;;;;;;;0.30;0.30;;;15.90;97.80;;;;;;5117718;28;20454;-70
2022/06/08 05:07:30;;;;;;;0.30;0.30;;;16.20;96.80;;;;;;5117598;28;20538;-69
2022/06/08 05:09:56;;;;;;;0.83;0.83;;;16.20;95.80;;;;;;5117474;28;20805;-69
2022/06/08 05:12:21;;;;;;;0.30;0.30;;;16.00;95.60;;;;;;5117203;28;20421;-69
2022/06/08 05:14:47;;;;;;;0.30;0.30;;;15.80;96.00;;;;;;5117577;28;20234;-69
2022/06/08 05:17:12;;;;;;;0.30;0.30;;;15.80;95.80;;;;;;5117557;28;20525;-70
2022/06/08 05:19:38;;;;;;;0.30;0.30;;;15.70;96.20;;;;;;5117404;28;20167;-68
2022/06/08 05:22:04;;;;;;;0.30;0.30;;;15.80;96.80;;;;;;5116982;28;20275;-69
2022/06/08 05:24:29;;;;;;;0.60;0.60;;;15.80;97.20;;;;;;5117107;28;20178;-70
2022/06/08 05:26:55;;;;;;;0.30;0.30;;;15.80;97.00;;;;;;5117227;28;20601;-68
2022/06/08 05:29:21;;;;;;;0.30;0.30;;;15.80;97.10;;;;;;5117184;28;20196;-70
2022/06/08 05:31:46;;;;;;;0.30;0.30;;;15.70;97.20;;;;;;5117107;27;20199;-68
2022/06/08 05:34:12;;;;;;;0.30;0.30;;;15.80;96.90;;;;;;5117012;28;20254;-70
2022/06/08 05:36:37;;;;;;;1.63;1.50;;;15.90;97.20;;;;;;5116830;28;20624;-69
2022/06/08 05:39:03;;;;;;;0.30;0.30;;;16.10;96.70;;;;;;5117040;28;20282;-69
2022/06/08 05:41:29;;;;;;;0.30;0.30;;;16.60;96.80;;;;;;5116982;28;20164;-70
2022/06/08 05:43:55;;;;;;;0.30;0.30;;;17.30;95.60;;;;;;5116691;28;20160;-70
2022/06/08 05:46:21;;;;;;;0.40;0.40;;;17.60;94.20;;;;;;5116889;28;20638;-69
2022/06/08 05:48:47;;;;;;;0.53;0.53;;;17.50;95.00;;;;;;5116847;28;20183;-70
2022/06/08 05:51:12;;;;;;;0.30;0.30;;;17.30;95.00;;;;;;5117065;28;20402;-68
2022/06/08 05:53:38;;;;;;;0.30;0.30;;;17.00;94.60;;;;;;5116428;28;20581;-69
2022/06/08 05:56:04;;;;;;;0.30;0.30;;;16.90;95.20;;;;;;5116518;28;20172;-70
2022/06/08 05:58:30;;;;;;;0.30;0.30;;;16.80;95.60;;;;;;5116643;28;20544;-70
2022/06/08 06:00:55;;;;;;;0.30;0.30;;;16.90;96.40;;;;;;5116651;28;20498;-70
2022/06/08 06:03:21;;;;;;;0.30;0.30;;;17.10;96.20;;;;;;5116127;28;20198;-69
2022/06/08 06:05:47;;;;;;;0.30;0.30;;;17.70;95.40;;;;;;5116529;28;20663;-70
2022/06/08 06:08:13;;;;;;;0.30;0.30;;;18.60;95.30;;;;;;5116318;28;20172;-69
2022/06/08 06:10:41;;;;;;;0.30;0.30;;;19.30;93.90;;;;;;5116481;28;20530;-70
2022/06/08 06:13:07;;;;;;;0.30;0.30;;;19.80;93.40;;;;;;5115769;28;20446;-69
2022/06/08 06:15:34;;;;;;;0.30;0.30;;;20.60;91.50;;;;;;5114886;28;20990;-70
2022/06/08 06:18:00;;;;;;;0.30;0.30;;;21.40;91.20;;;;;;5116250;28;20516;-69
2022/06/08 06:20:26;;;;;;;0.30;0.30;;;21.80;85.60;;;;;;5116339;28;20482;-69
2022/06/08 06:22:52;;;;;;;0.30;0.30;;;22.00;86.80;;;;;;5115659;28;20442;-69
2022/06/08 06:25:18;;;;;;;0.40;0.40;;;21.70;83.50;;;;;;5116101;28;20737;-69
2022/06/08 06:27:44;;;;;;;0.30;0.30;;;21.40;88.70;;;;;;5116132;28;20406;-70
2022/06/08 06:30:10;;;;;;;0.30;0.30;;;21.30;89.70;;;;;;5115936;28;20958;-70
2022/06/08 06:32:37;;;;;;;0.30;0.30;;;21.50;90.00;;;;;;5114366;28;20287;-70
2022/06/08 06:35:05;;;;;;;0.30;0.30;;;22.00;89.80;;;;;;5116055;27;20871;-70
2022/06/08 06:37:31;;;;;;;0.30;0.30;;;22.50;86.20;;;;;;5115624;28;20412;-70
2022/06/08 06:39:57;;;;;;;0.53;0.53;;;22.50;84.50;;;;;;5115913;28;20389;-70
2022/06/08 06:42:26;;;;;;;0.30;0.30;;;22.80;84.10;;;;;;5115468;27;20183;-70
2022/06/08 06:44:52;;;;;;;0.40;0.40;;;23.40;82.10;;;;;;5115864;28;20483;-70
2022/06/08 06:47:18;;;;;;;0.30;0.30;;;23.90;81.40;;;;;;5115753;28;20440;-69
2022/06/08 06:49:44;;;;;;;0.30;0.30;;;23.70;77.30;;;;;;5115696;28;20571;-71
2022/06/08 06:52:12;;;;;;;0.30;0.30;;;23.70;78.70;;;;;;5113923;28;20485;-70
2022/06/08 06:54:38;;;;;;;0.33;0.33;;;23.50;79.70;;;;;;5115520;28;20398;-70
2022/06/08 06:57:04;;;;;;;0.40;0.40;;;23.30;81.70;;;;;;5115459;28;20373;-68
2022/06/08 06:59:30;;;;;;;0.30;0.30;;;23.90;78.30;;;;;;5115353;28;20827;-70
2022/06/08 07:01:56;;;;;;;0.30;0.30;;;24.30;76.10;;;;;;5115398;28;20502;-69
2022/06/08 07:04:21;;;;;;;0.40;0.40;;;24.60;76.40;;;;;;5115091;28;20175;-71
2022/06/08 07:06:47;;;;;;;0.30;0.30;;;24.40;72.60;;;;;;5115245;28;20912;-70
2022/06/08 07:09:13;;;;;;;0.30;0.30;;;24.60;74.80;;;;;;5115056;28;20716;-70
2022/06/08 07:11:41;;;;;;;0.50;0.40;;;24.70;76.30;;;;;;5115184;28;20174;-69
2022/06/08 07:14:19;;;;;;;2.20;0.70;;;25.00;75.30;;;;;;5115009;28;20171;-71
2022/06/08 07:16:46;;;;;;;0.30;0.30;;;24.60;69.00;;;;;;5115428;28;20410;-70
2022/06/08 07:19:13;;;;;;;0.40;0.40;;;24.20;71.10;;;;;;5114906;28;20819;-69
2022/06/08 07:21:40;;;;;;;0.47;0.47;;;23.40;70.80;;;;;;5114898;28;20422;-70
2022/06/08 07:24:06;;;;;;;0.30;0.30;;;23.30;70.30;;;;;;5114150;28;20418;-68
2022/06/08 07:26:33;;;;;;;0.30;0.30;;;22.80;71.00;;;;;;5114992;28;20369;-70
2022/06/08 07:28:59;;;;;;;0.30;0.30;;;22.40;70.80;;;;;;5113625;28;20902;-70
2022/06/08 07:31:25;;;;;;;0.30;0.30;;;22.20;75.30;;;;;;5114571;28;20379;-70
2022/06/08 07:33:51;;;;;;;0.30;0.30;;;22.70;75.60;;;;;;5114518;28;20179;-70
2022/06/08 07:36:17;;;;;;;0.30;0.30;;;23.80;70.90;;;;;;5114831;28;20455;-70
2022/06/08 07:38:43;;;;;;;0.30;0.30;;;24.30;66.30;;;;;;5115075;28;20640;-70
2022/06/08 07:41:09;;;;;;;0.30;0.30;;;24.70;66.70;;;;;;5114670;28;20402;-70
2022/06/08 07:43:35;;;;;;;0.30;0.30;;;25.30;62.20;;;;;;5114191;28;20421;-69
2022/06/08 07:46:01;;;;;;;0.30;0.30;;;24.90;59.70;;;;;;5114477;28;20361;-71
2022/06/08 07:51:11;;;;;;;0.30;0.30;;;24.70;60.20;;;;;;5114635;28;20182;-69
2022/06/08 07:53:37;;;;;;;0.30;0.30;;;24.70;59.80;;;;;;5114101;28;20429;-69
2022/06/08 07:56:03;;;;;;;0.30;0.30;;;24.90;64.00;;;;;;5114733;28;20568;-70
2022/06/08 07:58:29;;;;;;;0.30;0.30;;;24.30;59.80;;;;;;5114155;28;20924;-70
2022/06/08 08:00:57;;;;;;;0.30;0.30;;;24.40;58.60;;;;;;5114322;28;20387;-71
2022/06/08 08:03:23;;;;;;;0.30;0.30;;;25.00;58.70;;;;;;5114150;28;20473;-69
2022/06/08 08:05:49;;;;;;;0.30;0.30;;;25.30;55.70;;;;;;5114716;28;20739;-69
2022/06/08 08:08:17;;;;;;;0.30;0.30;;;25.30;56.40;;;;;;5114332;28;20797;-70
2022/06/08 08:10:44;;;;;;;0.30;0.30;;;25.30;57.20;;;;;;5114528;28;20414;-70
2022/06/08 08:13:10;;;;;;;0.30;0.30;;;25.00;57.60;;;;;;5113826;28;20461;-70
2022/06/08 08:15:36;;;;;;;0.30;0.30;;;24.10;59.20;;;;;;5114107;28;20402;-69
2022/06/08 08:18:03;;;;;;;0.30;0.30;;;23.40;62.90;;;;;;5114092;28;20420;-70
2022/06/08 08:20:30;;;;;;;0.30;0.30;;;22.90;62.50;;;;;;5114105;28;20372;-69
2022/06/08 08:22:57;;;;;;;0.40;0.40;;;22.90;60.50;;;;;;5113700;28;20437;-71
2022/06/08 08:25:23;;;;;;;0.30;0.30;;;23.70;61.90;;;;;;5113874;28;20864;-69
2022/06/08 08:27:50;;;;;;;0.30;0.30;;;24.80;59.70;;;;;;5113843;28;20398;-70
2022/06/08 08:30:19;;;;;;;0.40;0.37;;;26.00;58.90;;;;;;5113948;28;20572;-70
2022/06/08 08:32:45;;;;;;;0.30;0.30;;;26.90;53.60;;;;;;5113670;28;20429;-70
2022/06/08 08:35:12;;;;;;;0.30;0.30;;;27.50;52.50;;;;;;5114432;28;20391;-70
2022/06/08 08:37:38;;;;;;;0.60;0.60;;;28.00;52.10;;;;;;5118003;28;20188;-71
2022/06/08 08:40:06;;;;;;;0.30;0.30;;;28.20;51.20;;;;;;5117982;28;20398;-70
2022/06/08 08:42:34;;;;;;;0.30;0.30;;;29.00;52.70;;;;;;5117594;28;20783;-69
2022/06/08 08:45:06;;;;;;;0.30;0.30;;;29.50;46.90;;;;;;5117713;28;20420;-71
2022/06/08 08:47:34;;;;;;;0.30;0.30;;;29.70;49.50;;;;;;5117679;28;20394;-70
2022/06/08 08:50:30;;;;;;;0.30;0.30;;;29.50;43.40;;;;;;5117710;28;20846;-70
2022/06/08 08:53:15;;;;;;;0.30;0.30;;;29.80;44.80;;;;;;5117730;28;20851;-70
2022/06/08 08:55:40;;;;;;;0.30;0.30;;;30.60;44.00;;;;;;5117910;27;20413;-71
2022/06/08 08:58:22;;;;;;;0.30;0.30;;;31.00;41.40;;;;;;5117700;28;20450;-71
2022/06/08 09:01:19;;;;;;;0.40;0.40;;;30.90;39.40;;;;;;5117747;28;20176;-70
2022/06/08 09:03:59;;;;;;;0.30;0.30;;;31.40;39.10;;;;;;5114085;28;20501;-70
2022/06/08 09:06:31;;;;;;;0.30;0.30;;;32.00;39.80;;;;;;5117724;28;20943;-70
2022/06/08 09:09:01;;;;;;;0.30;0.30;;;31.80;38.00;;;;;;5117498;28;20890;-69
2022/06/08 09:11:31;;;;;;;0.30;0.30;;;30.50;37.20;;;;;;5117440;28;20406;-70
2022/06/08 09:14:23;;;;;;;0.30;0.30;;;28.70;39.00;;;;;;5117302;28;20397;-70
2022/06/08 09:17:10;;;;;;;0.37;0.37;;;27.30;43.40;;;;;;5117218;27;20406;-70
2022/06/08 09:19:41;;;;;;;0.30;0.30;;;27.40;43.50;;;;;;5115912;28;20980;-71
2022/06/08 09:22:06;;;;;;;0.30;0.30;;;28.00;43.60;;;;;;5116709;28;20426;-69
2022/06/08 09:24:51;;;;;;;0.30;0.30;;;29.70;42.20;;;;;;5117147;28;20462;-70
2022/06/08 09:27:22;;;;;;;1.50;0.50;;;30.70;38.80;;;;;;5117199;28;20168;-71
2022/06/08 09:30:18;;;;;;;0.30;0.30;;;30.40;38.30;;;;;;5117072;28;20466;-71
2022/06/08 09:32:51;;;;;;;0.30;0.30;;;29.60;39.50;;;;;;5116706;28;20521;-69
2022/06/08 09:35:26;;;;;;;0.30;0.30;;;29.90;39.40;;;;;;5117201;28;20398;-70
2022/06/08 09:37:55;;;;;;;0.30;0.30;;;29.50;39.00;;;;;;5116909;27;20846;-70
2022/06/08 09:40:37;;;;;;;0.30;0.30;;;29.20;39.50;;;;;;5116713;28;20398;-71
2022/06/08 09:43:02;;;;;;;0.30;0.30;;;28.70;39.80;;;;;;5116603;28;20433;-70
2022/06/08 09:45:28;;;;;;;0.30;0.30;;;28.80;39.70;;;;;;5116841;28;20758;-70
2022/06/08 09:51:56;;;;;;;0.40;0.40;;;29.50;38.80;;;;;;5112487;28;20182;-70
2022/06/08 09:54:29;;;;;;;0.40;0.40;;;28.60;38.30;;;;;;5116484;28;20462;-69
2022/06/08 09:57:08;;;;;;;0.30;0.30;;;29.00;40.60;;;;;;5116663;28;20402;-71
2022/06/08 09:59:39;;;;;;;0.40;0.40;;;29.40;41.00;;;;;;5116437;28;20502;-70
2022/06/08 10:02:10;;;;;;;0.30;0.30;;;29.20;39.20;;;;;;5116247;28;20429;-70
2022/06/08 10:05:02;;;;;;;0.30;0.30;;;29.10;40.30;;;;;;5116339;28;20909;-70
2022/06/08 10:07:45;;;;;;;0.30;0.30;;;29.20;41.70;;;;;;5094452;28;20440;-69
2022/06/08 10:10:32;;;;;;;0.30;0.30;;;28.40;40.20;;;;;;5116283;28;20394;-70
2022/06/08 10:13:02;;;;;;;0.30;0.30;;;28.10;40.90;;;;;;5115880;28;20437;-69
2022/06/08 10:15:32;;;;;;;0.30;0.30;;;27.50;42.10;;;;;;5116191;28;20402;-71
2022/06/08 10:18:06;;;;;;;0.30;0.30;;;27.50;42.00;;;;;;5115984;28;20523;-69
2022/06/08 10:20:40;;;;;;;0.30;0.30;;;27.30;43.40;;;;;;5115989;28;20401;-69
2022/06/08 10:23:18;;;;;;;0.30;0.30;;;26.90;42.80;;;;;;5115750;28;20453;-70
2022/06/08 10:25:48;;;;;;;0.30;0.30;;;26.90;43.60;;;;;;5116130;28;20381;-71
2022/06/08 10:28:47;;;;;;;0.30;0.30;;;26.90;42.20;;;;;;5116279;28;20766;-70
2022/06/08 10:31:42;;;;;;;0.30;0.30;;;26.60;41.50;;;;;;5116034;28;20413;-69
2022/06/08 10:34:20;;;;;;;0.30;0.30;;;26.20;44.30;;;;;;5115745;28;20897;-69
2022/06/08 10:36:53;;;;;;;0.50;0.50;;;25.80;41.20;;;;;;5115875;28;20540;-70
2022/06/08 10:39:19;;;;;;;0.30;0.30;;;25.50;45.90;;;;;;5115503;28;20917;-70
2022/06/08 10:45:01;;;;;;;0.30;0.30;;;25.10;47.30;;;;;;5115656;28;20396;-70
2022/06/08 10:47:31;;;;;;;0.40;0.40;;;25.00;47.70;;;;;;5115629;28;20406;-69
2022/06/08 10:49:59;;;;;;;0.30;0.30;;;24.60;50.30;;;;;;5115424;28;20425;-69
2022/06/08 10:52:29;;;;;;;0.30;0.30;;;24.20;49.30;;;;;;5115438;28;20428;-70
2022/06/08 10:55:15;;;;;;;0.40;0.40;;;23.90;49.60;;;;;;5115444;28;20380;-69
2022/06/08 10:58:01;;;;;;;0.60;0.60;;;23.60;48.00;;;;;;5114402;28;20402;-71
2022/06/08 11:01:00;;;;;;;0.30;0.30;;;24.00;51.70;;;;;;5115249;27;20394;-69
2022/06/08 11:03:36;;;;;;;0.40;0.40;;;24.40;50.20;;;;;;5114879;28;20405;-70
2022/06/08 11:06:09;;;;;;;0.30;0.30;;;24.30;46.40;;;;;;5115046;28;20405;-70
2022/06/08 11:08:56;;;;;;;0.30;0.30;;;23.80;46.40;;;;;;5113666;28;20984;-70
2022/06/08 11:11:45;;;;;;;0.30;0.30;;;23.30;47.20;;;;;;5113806;28;20899;-69
2022/06/08 11:14:53;;;;;;;0.30;0.30;;;22.90;48.40;;;;;;5114731;27;20574;-69
2022/06/08 11:17:37;;;;;;;0.30;0.30;;;22.70;49.80;;;;;;5109212;28;20449;-70
2022/06/08 11:20:33;;;;;;;0.30;0.30;;;22.60;51.70;;;;;;5114983;28;20405;-70
2022/06/08 11:23:23;;;;;;;0.30;0.30;;;22.30;48.50;;;;;;5114426;28;20866;-69
2022/06/08 11:25:52;;;;;;;0.30;0.30;;;22.20;48.80;;;;;;5114983;28;20376;-69
2022/06/08 11:28:34;;;;;;;0.30;0.30;;;22.40;47.10;;;;;;5114717;28;20961;-69
2022/06/08 11:31:11;;;;;;;0.50;0.50;;;22.50;47.90;;;;;;5115235;28;20397;-70
2022/06/08 11:33:58;;;;;;;0.30;0.30;;;22.70;47.70;;;;;;5114585;28;20429;-69
2022/06/08 11:37:00;;;;;;;0.30;0.30;;;22.90;47.40;;;;;;5113410;28;20478;-68
2022/06/08 11:39:51;;;;;;;0.30;0.30;;;23.00;45.20;;;;;;5114500;28;20452;-70
2022/06/08 11:42:24;;;;;;;0.30;0.30;;;23.10;48.50;;;;;;5114296;28;20495;-70
2022/06/08 11:45:07;;;;;;;0.40;0.40;;;22.90;48.70;;;;;;5114524;28;20427;-69
2022/06/08 11:48:04;;;;;;;0.30;0.30;;;22.70;47.60;;;;;;5114436;28;20397;-71
2022/06/08 11:50:48;;;;;;;0.30;0.30;;;22.40;49.10;;;;;;5114793;28;20407;-69
2022/06/08 11:53:35;;;;;;;0.30;0.30;;;22.70;49.60;;;;;;5114209;28;20444;-70
2022/06/08 11:56:24;;;;;;;0.30;0.30;;;23.00;48.50;;;;;;5114398;28;20402;-70
2022/06/08 11:58:53;;;;;;;0.30;0.30;;;23.20;48.50;;;;;;5114341;28;20424;-70
2022/06/08 12:01:28;;;;;;;6.10;0.60;;;23.10;48.80;;;;;;5114218;28;20499;-70
2022/06/08 12:04:04;;;;;;;0.30;0.30;;;23.20;50.30;;;;;;5114025;28;20404;-70
2022/06/08 12:06:36;;;;;;;0.30;0.30;;;22.80;50.20;;;;;;5114418;28;20379;-70
2022/06/08 12:09:10;;;;;;;0.30;0.30;;;23.00;53.70;;;;;;5114083;28;20413;-70
2022/06/08 12:11:40;;;;;;;0.30;0.30;;;22.70;51.40;;;;;;5114281;28;20425;-69
2022/06/08 12:14:27;;;;;;;0.30;0.30;;;22.80;53.40;;;;;;5114225;28;20946;-70
2022/06/08 12:16:53;;;;;;;0.30;0.30;;;22.90;54.80;;;;;;5114356;28;20459;-69
2022/06/08 12:19:21;;;;;;;0.53;0.53;;;22.90;54.40;;;;;;5113890;28;20450;-69
2022/06/08 12:21:49;;;;;;;0.30;0.30;;;22.70;53.00;;;;;;5113907;28;20183;-69
2022/06/08 12:24:14;;;;;;;0.30;0.30;;;22.70;54.60;;;;;;5113879;28;20432;-70
2022/06/08 12:26:51;;;;;;;0.30;0.30;;;22.50;53.60;;;;;;5114082;28;20492;-71
2022/06/08 12:29:27;;;;;;;0.30;0.30;;;22.00;52.80;;;;;;5113937;28;20230;-70
2022/06/08 12:32:07;;;;;;;0.30;0.30;;;22.10;55.00;;;;;;5114132;28;20442;-69
2022/06/08 12:34:41;;;;;;;0.30;0.30;;;22.20;54.20;;;;;;5114048;28;20401;-70
2022/06/08 12:37:30;;;;;;;0.30;0.30;;;22.40;58.30;;;;;;5113739;28;20408;-70
2022/06/08 12:40:00;;;;;;;0.30;0.30;;;22.10;54.30;;;;;;5114055;28;20488;-70
2022/06/08 12:42:31;;;;;;;0.40;0.40;;;22.00;58.10;;;;;;5113703;28;20853;-70
2022/06/08 12:44:58;;;;;;;0.30;0.30;;;22.00;59.20;;;;;;5114171;28;20920;-70
2022/06/08 12:47:29;;;;;;;0.30;0.30;;;22.00;57.00;;;;;;5113940;28;20407;-69
2022/06/08 12:49:59;;;;;;;0.50;0.50;;;21.80;58.50;;;;;;5113974;28;20397;-68
2022/06/08 12:52:33;;;;;;;0.50;0.50;;;22.00;58.00;;;;;;5113477;28;20430;-70
2022/06/08 12:54:59;;;;;;;0.30;0.30;;;21.50;55.30;;;;;;5113967;28;20742;-69
2022/06/08 12:57:28;;;;;;;0.30;0.30;;;21.40;58.70;;;;;;5113783;28;20409;-69
2022/06/08 12:59:56;;;;;;;0.30;0.30;;;21.10;60.40;;;;;;5113776;28;20541;-71
2022/06/08 13:02:28;;;;;;;0.63;0.63;;;21.00;62.10;;;;;;5113383;28;20434;-69
2022/06/08 13:04:54;;;;;;;0.30;0.30;;;20.80;60.40;;;;;;5113656;28;20502;-69
2022/06/08 13:07:26;;;;;;;0.43;0.43;;;20.60;65.10;;;;;;5113557;28;20402;-69
2022/06/08 13:09:52;;;;;;;0.40;0.40;;;20.20;69.50;;;;;;5113695;28;20435;-70
2022/06/08 13:12:25;;;;;;;0.30;0.30;;;19.70;70.90;;;;;;5113410;28;20517;-69
2022/06/08 13:14:51;;;;;;;0.37;0.37;;;19.20;73.60;;;;;;5113696;28;20197;-69
2022/06/08 13:17:17;;;;;;;0.30;0.30;;;19.20;78.30;;;;;;5113422;28;20403;-68
2022/06/08 13:19:43;;;;;;;0.30;0.30;;;19.00;77.30;;;;;;5113631;28;20807;-69
2022/06/08 13:22:10;;;;;;;0.30;0.30;;;18.90;84.20;;;;;;5114982;28;20431;-70
2022/06/08 13:24:35;;;;;;;0.30;0.30;;;18.60;92.40;;;;;;5117453;28;20192;-69
2022/06/08 13:27:02;;;;;;;0.30;0.30;;;18.50;90.90;;;;;;5117403;28;20487;-69
2022/06/08 13:29:27;;;;;;;0.30;0.30;;;18.40;94.80;;;;;;5117036;28;20201;-70